FDB26 OBBI-OMDB
Flight info
| Callsign | FDB26 |
|---|---|
| Flight time | 0h 53m |
| Altitude | 25000 |
| Route | BHR N697 SODAK P559 VUTEB |
| Aircraft | B738/M-SDE2E3FGHIRWXY/LB1 |
Departure
| Time | 2026-04-24 14:57 |
|---|---|
| Airport | Bahrain International Airport (OBBI) |
Arrival
| Time | 2026-04-24 15:51 |
|---|---|
| Airport | Dubai International Airport (OMDB) |
| Time | Latitude | Longitude | Altitude | Speed | Heading |
|---|---|---|---|---|---|
| 2026-04-24 14:29 | 26.26969 | 50.62786 | 13 ft | 0 kts | 214° |
| 2026-04-24 14:47 | 26.26987 | 50.62797 | 14 ft | 4 kts | 200° |
| 2026-04-24 14:47 | 26.27012 | 50.62802 | 14 ft | 4 kts | 166° |
| 2026-04-24 14:48 | 26.27034 | 50.62788 | 14 ft | 4 kts | 130° |
| 2026-04-24 14:48 | 26.27043 | 50.62775 | 13 ft | 0 kts | 123° |
| 2026-04-24 14:52 | 26.27038 | 50.62788 | 14 ft | 3 kts | 108° |
| 2026-04-24 14:52 | 26.27040 | 50.62830 | 14 ft | 8 kts | 79° |
| 2026-04-24 14:52 | 26.27021 | 50.62912 | 15 ft | 15 kts | 121° |
| 2026-04-24 14:53 | 26.26956 | 50.63027 | 13 ft | 19 kts | 123° |
| 2026-04-24 14:53 | 26.26925 | 50.63146 | 13 ft | 11 kts | 57° |
| 2026-04-24 14:53 | 26.26949 | 50.63243 | 12 ft | 17 kts | 118° |
| 2026-04-24 14:53 | 26.26875 | 50.63370 | 12 ft | 22 kts | 123° |
| 2026-04-24 14:54 | 26.26779 | 50.63535 | 11 ft | 28 kts | 122° |
| 2026-04-24 14:54 | 26.26667 | 50.63733 | 15 ft | 32 kts | 122° |
| 2026-04-24 14:54 | 26.26549 | 50.63937 | 16 ft | 32 kts | 123° |
| 2026-04-24 14:54 | 26.26418 | 50.64162 | 13 ft | 37 kts | 123° |
| 2026-04-24 14:55 | 26.26324 | 50.64326 | 11 ft | 39 kts | 122° |
| 2026-04-24 14:55 | 26.26129 | 50.64666 | 11 ft | 39 kts | 123° |
| 2026-04-24 14:55 | 26.26029 | 50.64843 | 14 ft | 24 kts | 114° |
| 2026-04-24 14:55 | 26.26033 | 50.64944 | 14 ft | 0 kts | 56° |
| 2026-04-24 14:56 | 26.26043 | 50.64960 | 15 ft | 5 kts | 53° |
| 2026-04-24 14:56 | 26.26090 | 50.64999 | 15 ft | 12 kts | 32° |
| 2026-04-24 14:56 | 26.26157 | 50.64970 | 15 ft | 10 kts | 301° |
| 2026-04-24 14:56 | 26.26213 | 50.64872 | 15 ft | 20 kts | 303° |
| 2026-04-24 14:57 | 26.26355 | 50.64629 | 12 ft | 68 kts | 302° |
| 2026-04-24 14:57 | 26.26729 | 50.63981 | 15 ft | 128 kts | 302° |
| 2026-04-24 14:57 | 26.27275 | 50.63033 | 224 ft | 157 kts | 302° |
| 2026-04-24 14:57 | 26.27832 | 50.61954 | 791 ft | 164 kts | 302° |
| 2026-04-24 14:58 | 26.28434 | 50.60865 | 1406 ft | 167 kts | 320° |
| 2026-04-24 14:58 | 26.29482 | 50.60298 | 1854 ft | 180 kts | 346° |
| 2026-04-24 14:58 | 26.30800 | 50.59937 | 2058 ft | 204 kts | 347° |
| 2026-04-24 14:58 | 26.32224 | 50.59593 | 2326 ft | 216 kts | 349° |
| 2026-04-24 14:59 | 26.33740 | 50.59251 | 2622 ft | 230 kts | 348° |
| 2026-04-24 14:59 | 26.35375 | 50.58875 | 2791 ft | 249 kts | 347° |
| 2026-04-24 14:59 | 26.37097 | 50.58489 | 3395 ft | 252 kts | 347° |
| 2026-04-24 14:59 | 26.38836 | 50.58125 | 3824 ft | 256 kts | 347° |
| 2026-04-24 15:00 | 26.40598 | 50.57776 | 3979 ft | 257 kts | 347° |
| 2026-04-24 15:00 | 26.42401 | 50.57666 | 4163 ft | 269 kts | 10° |
| 2026-04-24 15:00 | 26.44029 | 50.58725 | 4796 ft | 281 kts | 45° |
| 2026-04-24 15:00 | 26.44915 | 50.60683 | 5399 ft | 292 kts | 78° |
| 2026-04-24 15:01 | 26.45134 | 50.62951 | 6023 ft | 295 kts | 75° |
| 2026-04-24 15:01 | 26.45959 | 50.65039 | 6630 ft | 296 kts | 59° |
| 2026-04-24 15:01 | 26.46953 | 50.67072 | 7202 ft | 301 kts | 60° |
| 2026-04-24 15:01 | 26.47921 | 50.69163 | 7837 ft | 304 kts | 61° |
| 2026-04-24 15:02 | 26.48864 | 50.71291 | 8512 ft | 307 kts | 62° |
| 2026-04-24 15:02 | 26.49794 | 50.73455 | 9186 ft | 311 kts | 63° |
| 2026-04-24 15:02 | 26.50724 | 50.75655 | 9867 ft | 315 kts | 63° |
| 2026-04-24 15:02 | 26.51663 | 50.77899 | 10368 ft | 325 kts | 64° |
| 2026-04-24 15:03 | 26.52308 | 50.79445 | 10456 ft | 340 kts | 64° |
| 2026-04-24 15:03 | 26.53690 | 50.82775 | 10660 ft | 366 kts | 64° |
| 2026-04-24 15:03 | 26.54788 | 50.85423 | 10797 ft | 384 kts | 64° |
| 2026-04-24 15:03 | 26.55911 | 50.88132 | 11078 ft | 394 kts | 63° |
| 2026-04-24 15:04 | 26.57306 | 50.90771 | 11565 ft | 396 kts | 52° |
| 2026-04-24 15:04 | 26.59111 | 50.93089 | 12136 ft | 395 kts | 41° |
| 2026-04-24 15:04 | 26.61233 | 50.95033 | 12666 ft | 397 kts | 35° |
| 2026-04-24 15:04 | 26.63458 | 50.96890 | 13182 ft | 401 kts | 34° |
| 2026-04-24 15:05 | 26.65694 | 50.98776 | 13705 ft | 405 kts | 35° |
| 2026-04-24 15:05 | 26.67942 | 51.00705 | 14185 ft | 408 kts | 36° |
| 2026-04-24 15:05 | 26.70192 | 51.02667 | 14686 ft | 412 kts | 36° |
| 2026-04-24 15:05 | 26.72446 | 51.04653 | 15167 ft | 416 kts | 36° |
| 2026-04-24 15:06 | 26.74482 | 51.06991 | 15556 ft | 426 kts | 56° |
| 2026-04-24 15:06 | 26.75690 | 51.10019 | 16036 ft | 430 kts | 77° |
| 2026-04-24 15:06 | 26.75987 | 51.13335 | 16529 ft | 430 kts | 95° |
| 2026-04-24 15:06 | 26.75382 | 51.16584 | 16982 ft | 428 kts | 112° |
| 2026-04-24 15:07 | 26.74359 | 51.19722 | 17454 ft | 430 kts | 114° |
| 2026-04-24 15:07 | 26.73301 | 51.22863 | 17908 ft | 433 kts | 114° |
| 2026-04-24 15:07 | 26.72238 | 51.26035 | 18334 ft | 437 kts | 114° |
| 2026-04-24 15:07 | 26.71184 | 51.29233 | 18703 ft | 440 kts | 114° |
| 2026-04-24 15:08 | 26.70140 | 51.32451 | 19104 ft | 442 kts | 113° |
| 2026-04-24 15:08 | 26.69094 | 51.35702 | 19510 ft | 444 kts | 113° |
| 2026-04-24 15:08 | 26.68049 | 51.38961 | 19917 ft | 446 kts | 113° |
| 2026-04-24 15:08 | 26.66994 | 51.42242 | 20291 ft | 449 kts | 113° |
| 2026-04-24 15:09 | 26.65933 | 51.45534 | 20651 ft | 452 kts | 113° |
| 2026-04-24 15:09 | 26.64868 | 51.48847 | 21005 ft | 455 kts | 112° |
| 2026-04-24 15:09 | 26.63796 | 51.52183 | 21359 ft | 457 kts | 112° |
| 2026-04-24 15:09 | 26.62718 | 51.55537 | 21704 ft | 460 kts | 112° |
| 2026-04-24 15:10 | 26.61635 | 51.58906 | 22016 ft | 463 kts | 112° |
| 2026-04-24 15:10 | 26.60539 | 51.62309 | 22297 ft | 466 kts | 112° |
| 2026-04-24 15:10 | 26.59438 | 51.65728 | 22614 ft | 469 kts | 112° |
| 2026-04-24 15:10 | 26.58331 | 51.69160 | 22947 ft | 471 kts | 112° |
| 2026-04-24 15:11 | 26.57216 | 51.72606 | 23262 ft | 473 kts | 112° |
| 2026-04-24 15:11 | 26.56103 | 51.76019 | 23534 ft | 475 kts | 112° |
| 2026-04-24 15:11 | 26.54976 | 51.79499 | 23776 ft | 478 kts | 112° |
| 2026-04-24 15:11 | 26.53837 | 51.83042 | 24065 ft | 478 kts | 112° |
| 2026-04-24 15:12 | 26.52711 | 51.86540 | 24417 ft | 478 kts | 112° |
| 2026-04-24 15:12 | 26.50429 | 51.93477 | 24915 ft | 482 kts | 113° |
| 2026-04-24 15:12 | 26.49245 | 51.97008 | 24904 ft | 489 kts | 113° |
| 2026-04-24 15:13 | 26.48044 | 52.00588 | 24915 ft | 496 kts | 113° |
| 2026-04-24 15:13 | 26.46816 | 52.04260 | 24926 ft | 501 kts | 113° |
| 2026-04-24 15:13 | 26.45611 | 52.07870 | 24921 ft | 504 kts | 113° |
| 2026-04-24 15:13 | 26.44390 | 52.11532 | 24906 ft | 502 kts | 113° |
| 2026-04-24 15:14 | 26.43173 | 52.15176 | 24911 ft | 501 kts | 113° |
| 2026-04-24 15:14 | 26.41954 | 52.18811 | 24915 ft | 500 kts | 113° |
| 2026-04-24 15:14 | 26.40735 | 52.22439 | 24915 ft | 499 kts | 113° |
| 2026-04-24 15:14 | 26.39514 | 52.26073 | 24915 ft | 499 kts | 113° |
| 2026-04-24 15:15 | 26.38295 | 52.29698 | 24911 ft | 499 kts | 113° |
| 2026-04-24 15:15 | 26.37076 | 52.33322 | 24905 ft | 499 kts | 113° |
| 2026-04-24 15:15 | 26.35856 | 52.36944 | 24911 ft | 499 kts | 113° |
| 2026-04-24 15:15 | 26.34617 | 52.40556 | 24906 ft | 499 kts | 114° |
| 2026-04-24 15:16 | 26.33281 | 52.44121 | 24908 ft | 498 kts | 116° |
| 2026-04-24 15:16 | 26.32364 | 52.46470 | 24911 ft | 498 kts | 116° |
| 2026-04-24 15:16 | 26.30971 | 52.50000 | 24905 ft | 498 kts | 116° |
| 2026-04-24 15:16 | 26.29580 | 52.53546 | 24909 ft | 499 kts | 116° |
| 2026-04-24 15:17 | 26.28205 | 52.57094 | 24912 ft | 499 kts | 116° |
| 2026-04-24 15:17 | 26.26840 | 52.60648 | 24908 ft | 499 kts | 115° |
| 2026-04-24 15:17 | 26.25479 | 52.64203 | 24905 ft | 499 kts | 115° |
| 2026-04-24 15:17 | 26.24113 | 52.67763 | 24901 ft | 499 kts | 115° |
| 2026-04-24 15:18 | 26.22750 | 52.71315 | 24894 ft | 499 kts | 115° |
| 2026-04-24 15:18 | 26.21389 | 52.74865 | 24904 ft | 499 kts | 115° |
| 2026-04-24 15:18 | 26.20028 | 52.78415 | 24910 ft | 498 kts | 115° |
| 2026-04-24 15:18 | 26.18667 | 52.81960 | 24914 ft | 498 kts | 115° |
| 2026-04-24 15:19 | 26.17307 | 52.85501 | 24895 ft | 497 kts | 115° |
| 2026-04-24 15:19 | 26.15947 | 52.89040 | 24900 ft | 497 kts | 115° |
| 2026-04-24 15:19 | 26.14587 | 52.92574 | 24905 ft | 497 kts | 115° |
| 2026-04-24 15:19 | 26.13227 | 52.96107 | 24893 ft | 497 kts | 115° |
| 2026-04-24 15:20 | 26.11867 | 52.99637 | 24908 ft | 496 kts | 115° |
| 2026-04-24 15:20 | 26.10506 | 53.03164 | 24888 ft | 496 kts | 115° |
| 2026-04-24 15:20 | 26.09164 | 53.06696 | 24894 ft | 495 kts | 115° |
| 2026-04-24 15:20 | 26.07859 | 53.10239 | 24899 ft | 495 kts | 114° |
| 2026-04-24 15:21 | 26.06571 | 53.13782 | 24896 ft | 494 kts | 114° |
| 2026-04-24 15:21 | 26.05283 | 53.17329 | 24897 ft | 493 kts | 114° |
| 2026-04-24 15:21 | 26.04009 | 53.20823 | 24897 ft | 493 kts | 114° |
| 2026-04-24 15:21 | 26.02717 | 53.24351 | 24899 ft | 493 kts | 114° |
| 2026-04-24 15:22 | 26.01421 | 53.27876 | 24895 ft | 493 kts | 114° |
| 2026-04-24 15:22 | 26.00123 | 53.31399 | 24893 ft | 493 kts | 114° |
| 2026-04-24 15:22 | 25.98823 | 53.34923 | 24895 ft | 493 kts | 114° |
| 2026-04-24 15:23 | 25.96219 | 53.41974 | 24894 ft | 494 kts | 114° |
| 2026-04-24 15:23 | 25.93609 | 53.49031 | 24892 ft | 494 kts | 115° |
| 2026-04-24 15:23 | 25.92331 | 53.52576 | 24887 ft | 495 kts | 113° |
| 2026-04-24 15:24 | 25.88682 | 53.63306 | 24887 ft | 495 kts | 113° |
| 2026-04-24 15:25 | 25.86228 | 53.70456 | 24887 ft | 495 kts | 113° |
| 2026-04-24 15:25 | 25.83751 | 53.77583 | 24880 ft | 495 kts | 113° |
| 2026-04-24 15:26 | 25.80020 | 53.88260 | 24883 ft | 495 kts | 113° |
| 2026-04-24 15:27 | 25.76286 | 53.98939 | 24721 ft | 492 kts | 113° |
| 2026-04-24 15:27 | 25.72884 | 54.09468 | 22808 ft | 481 kts | 110° |
| 2026-04-24 15:28 | 25.68704 | 54.23266 | 20263 ft | 464 kts | 111° |
| 2026-04-24 15:29 | 25.66623 | 54.29980 | 19024 ft | 457 kts | 110° |
| 2026-04-24 15:30 | 25.63565 | 54.39899 | 17077 ft | 449 kts | 110° |
| 2026-04-24 15:31 | 25.59638 | 54.52726 | 14654 ft | 431 kts | 110° |
| 2026-04-24 15:32 | 25.58577 | 54.65464 | 13013 ft | 401 kts | 82° |
| 2026-04-24 15:33 | 25.60102 | 54.76867 | 12512 ft | 348 kts | 82° |
| 2026-04-24 15:33 | 25.61052 | 54.84410 | 12106 ft | 313 kts | 82° |
| 2026-04-24 15:34 | 25.60407 | 54.88869 | 11887 ft | 289 kts | 115° |
| 2026-04-24 15:35 | 25.57931 | 54.95010 | 10945 ft | 291 kts | 116° |
| 2026-04-24 15:35 | 25.56298 | 54.99119 | 10241 ft | 291 kts | 115° |
| 2026-04-24 15:35 | 25.55494 | 55.01156 | 10063 ft | 286 kts | 115° |
| 2026-04-24 15:36 | 25.54695 | 55.03180 | 10047 ft | 287 kts | 116° |
| 2026-04-24 15:36 | 25.52790 | 55.07038 | 10031 ft | 285 kts | 122° |
| 2026-04-24 15:36 | 25.51775 | 55.08942 | 9824 ft | 292 kts | 122° |
| 2026-04-24 15:37 | 25.50741 | 55.10892 | 9533 ft | 294 kts | 122° |
| 2026-04-24 15:37 | 25.49714 | 55.12851 | 9231 ft | 294 kts | 122° |
| 2026-04-24 15:37 | 25.48691 | 55.14814 | 8938 ft | 295 kts | 122° |
| 2026-04-24 15:37 | 25.47667 | 55.16783 | 8632 ft | 295 kts | 121° |
| 2026-04-24 15:38 | 25.46645 | 55.18749 | 8342 ft | 295 kts | 121° |
| 2026-04-24 15:38 | 25.45547 | 55.20659 | 8082 ft | 292 kts | 130° |
| 2026-04-24 15:38 | 25.44230 | 55.22319 | 8038 ft | 282 kts | 135° |
| 2026-04-24 15:38 | 25.42904 | 55.23876 | 8021 ft | 276 kts | 136° |
| 2026-04-24 15:39 | 25.41561 | 55.25455 | 8044 ft | 289 kts | 135° |
| 2026-04-24 15:39 | 25.40173 | 55.27120 | 8042 ft | 299 kts | 134° |
| 2026-04-24 15:39 | 25.38767 | 55.28833 | 8035 ft | 301 kts | 134° |
| 2026-04-24 15:39 | 25.37372 | 55.30542 | 8017 ft | 298 kts | 134° |
| 2026-04-24 15:40 | 25.35982 | 55.32232 | 8015 ft | 296 kts | 137° |
| 2026-04-24 15:40 | 25.34344 | 55.33550 | 8030 ft | 290 kts | 154° |
| 2026-04-24 15:40 | 25.32553 | 55.34572 | 8018 ft | 290 kts | 155° |
| 2026-04-24 15:40 | 25.30758 | 55.35585 | 8027 ft | 291 kts | 155° |
| 2026-04-24 15:41 | 25.28933 | 55.36622 | 7780 ft | 299 kts | 155° |
| 2026-04-24 15:41 | 25.27079 | 55.37690 | 7501 ft | 301 kts | 155° |
| 2026-04-24 15:41 | 25.25227 | 55.38766 | 7212 ft | 300 kts | 154° |
| 2026-04-24 15:41 | 25.23385 | 55.39842 | 6932 ft | 299 kts | 154° |
| 2026-04-24 15:42 | 25.21550 | 55.40916 | 6653 ft | 298 kts | 154° |
| 2026-04-24 15:42 | 25.19716 | 55.41988 | 6374 ft | 298 kts | 154° |
| 2026-04-24 15:42 | 25.17887 | 55.43059 | 6092 ft | 297 kts | 154° |
| 2026-04-24 15:42 | 25.16060 | 55.44127 | 5807 ft | 297 kts | 154° |
| 2026-04-24 15:43 | 25.14262 | 55.45178 | 5521 ft | 297 kts | 154° |
| 2026-04-24 15:43 | 25.12407 | 55.46262 | 5207 ft | 297 kts | 153° |
| 2026-04-24 15:43 | 25.10807 | 55.47646 | 4874 ft | 301 kts | 128° |
| 2026-04-24 15:43 | 25.09682 | 55.49583 | 4616 ft | 300 kts | 122° |
| 2026-04-24 15:44 | 25.08607 | 55.51553 | 4290 ft | 300 kts | 122° |
| 2026-04-24 15:44 | 25.07526 | 55.53522 | 3988 ft | 300 kts | 122° |
| 2026-04-24 15:44 | 25.06449 | 55.55496 | 3680 ft | 301 kts | 118° |
| 2026-04-24 15:44 | 25.05852 | 55.57694 | 3354 ft | 301 kts | 92° |
| 2026-04-24 15:45 | 25.06162 | 55.59953 | 3056 ft | 299 kts | 66° |
| 2026-04-24 15:45 | 25.07304 | 55.61830 | 2754 ft | 295 kts | 41° |
| 2026-04-24 15:45 | 25.09035 | 55.62949 | 2415 ft | 287 kts | 11° |
| 2026-04-24 15:45 | 25.10977 | 55.62892 | 2159 ft | 280 kts | 340° |
| 2026-04-24 15:46 | 25.12518 | 55.61695 | 2060 ft | 270 kts | 307° |
| 2026-04-24 15:46 | 25.13229 | 55.59834 | 2046 ft | 260 kts | 285° |
| 2026-04-24 15:46 | 25.13724 | 55.57963 | 2013 ft | 248 kts | 292° |
| 2026-04-24 15:46 | 25.14389 | 55.56269 | 2014 ft | 234 kts | 296° |
| 2026-04-24 15:47 | 25.15137 | 55.54721 | 2010 ft | 223 kts | 302° |
| 2026-04-24 15:47 | 25.15933 | 55.53298 | 2006 ft | 213 kts | 303° |
| 2026-04-24 15:47 | 25.16690 | 55.51944 | 2011 ft | 202 kts | 303° |
| 2026-04-24 15:47 | 25.17396 | 55.50668 | 2022 ft | 189 kts | 303° |
| 2026-04-24 15:48 | 25.18064 | 55.49461 | 2021 ft | 179 kts | 303° |
| 2026-04-24 15:48 | 25.18703 | 55.48307 | 1950 ft | 175 kts | 303° |
| 2026-04-24 15:48 | 25.19319 | 55.47194 | 1755 ft | 164 kts | 304° |
| 2026-04-24 15:48 | 25.19882 | 55.46178 | 1542 ft | 146 kts | 306° |
| 2026-04-24 15:49 | 25.20408 | 55.45230 | 1338 ft | 147 kts | 305° |
| 2026-04-24 15:49 | 25.20938 | 55.44273 | 1148 ft | 145 kts | 304° |
| 2026-04-24 15:49 | 25.21462 | 55.43338 | 952 ft | 141 kts | 305° |
| 2026-04-24 15:49 | 25.21975 | 55.42427 | 761 ft | 139 kts | 303° |
| 2026-04-24 15:50 | 25.22464 | 55.41512 | 551 ft | 138 kts | 301° |
| 2026-04-24 15:50 | 25.22977 | 55.40576 | 330 ft | 147 kts | 302° |
| 2026-04-24 15:50 | 25.23517 | 55.39617 | 138 ft | 145 kts | 303° |
| 2026-04-24 15:50 | 25.24024 | 55.38701 | 22 ft | 132 kts | 303° |
| 2026-04-24 15:51 | 25.24452 | 55.37933 | 23 ft | 100 kts | 301° |
| 2026-04-24 15:51 | 25.24753 | 55.37391 | 23 ft | 65 kts | 301° |
| 2026-04-24 15:51 | 25.24919 | 55.37091 | 22 ft | 30 kts | 302° |
| 2026-04-24 15:51 | 25.25000 | 55.36909 | 22 ft | 19 kts | 299° |
| 2026-04-24 15:52 | 25.25014 | 55.36839 | 21 ft | 9 kts | 268° |
| 2026-04-24 15:52 | 25.25016 | 55.36766 | 21 ft | 11 kts | 272° |
| 2026-04-24 15:52 | 25.25019 | 55.36666 | 21 ft | 15 kts | 272° |
| 2026-04-24 15:52 | 25.25024 | 55.36537 | 21 ft | 17 kts | 273° |
| 2026-04-24 15:53 | 25.25041 | 55.36412 | 24 ft | 16 kts | 285° |
| 2026-04-24 15:53 | 25.25080 | 55.36322 | 21 ft | 11 kts | 301° |
| 2026-04-24 15:53 | 25.25120 | 55.36248 | 22 ft | 11 kts | 300° |
| 2026-04-24 15:53 | 25.25159 | 55.36176 | 23 ft | 11 kts | 301° |
| 2026-04-24 15:54 | 25.25197 | 55.36106 | 21 ft | 11 kts | 301° |
| 2026-04-24 15:54 | 25.25237 | 55.36034 | 21 ft | 11 kts | 302° |
| 2026-04-24 15:54 | 25.25279 | 55.35960 | 21 ft | 11 kts | 302° |
| 2026-04-24 15:54 | 25.25322 | 55.35883 | 21 ft | 13 kts | 302° |
| 2026-04-24 15:55 | 25.25374 | 55.35792 | 23 ft | 15 kts | 302° |
| 2026-04-24 15:55 | 25.25434 | 55.35684 | 23 ft | 18 kts | 301° |
| 2026-04-24 15:55 | 25.25500 | 55.35562 | 21 ft | 19 kts | 301° |
| 2026-04-24 15:55 | 25.25572 | 55.35431 | 21 ft | 21 kts | 301° |
| 2026-04-24 15:56 | 25.25635 | 55.35318 | 22 ft | 17 kts | 302° |
| 2026-04-24 15:56 | 25.25687 | 55.35227 | 24 ft | 8 kts | 302° |
| 2026-04-24 15:56 | 25.25691 | 55.35220 | 22 ft | 0 kts | 302° |
| 2026-04-24 15:56 | 25.25696 | 55.35211 | 21 ft | 3 kts | 302° |
| 2026-04-24 15:57 | 25.25705 | 55.35195 | 22 ft | 0 kts | 301° |
| 2026-04-24 15:57 | 25.25710 | 55.35185 | 21 ft | 0 kts | 301° |
| 2026-04-24 15:58 | 25.25711 | 55.35185 | 21 ft | 0 kts | 301° |
| 2026-04-24 15:58 | 25.25718 | 55.35171 | 23 ft | 1 kts | 301° |
| 2026-04-24 15:58 | 25.25729 | 55.35151 | 24 ft | 5 kts | 301° |
| 2026-04-24 15:58 | 25.25759 | 55.35095 | 21 ft | 13 kts | 300° |
| 2026-04-24 15:59 | 25.25817 | 55.34987 | 21 ft | 20 kts | 301° |
| 2026-04-24 15:59 | 25.25899 | 55.34838 | 21 ft | 24 kts | 302° |
| 2026-04-24 15:59 | 25.25989 | 55.34675 | 21 ft | 25 kts | 301° |
| 2026-04-24 15:59 | 25.26096 | 55.34653 | 23 ft | 19 kts | 44° |
| 2026-04-24 16:00 | 25.26193 | 55.34762 | 21 ft | 20 kts | 41° |
| 2026-04-24 16:00 | 25.26280 | 55.34756 | 21 ft | 13 kts | 303° |
| 2026-04-24 16:00 | 25.26309 | 55.34692 | 23 ft | 8 kts | 299° |
| 2026-04-24 16:00 | 25.26344 | 55.34627 | 22 ft | 11 kts | 303° |
| 2026-04-24 16:01 | 25.26393 | 55.34545 | 21 ft | 14 kts | 306° |
| 2026-04-24 16:01 | 25.26479 | 55.34487 | 21 ft | 16 kts | 308° |
| 2026-04-24 16:01 | 25.26528 | 55.34402 | 23 ft | 11 kts | 300° |
| 2026-04-24 16:01 | 25.26555 | 55.34351 | 23 ft | 6 kts | 300° |
| 2026-04-24 16:02 | 25.26587 | 55.34311 | 21 ft | 8 kts | 348° |
| 2026-04-24 16:02 | 25.26629 | 55.34333 | 21 ft | 6 kts | 28° |
| 2026-04-24 16:02 | 25.26653 | 55.34348 | 21 ft | 0 kts | 31° |